createdAt,value
2022-12-05T00:04:54.062Z,100.00
2022-12-05T00:09:56.323Z,100.00
2022-12-05T00:14:58.217Z,100.00
2022-12-05T00:20:00.250Z,100.00
2022-12-05T00:25:02.051Z,100.00
2022-12-05T00:30:04.497Z,100.00
2022-12-05T00:35:06.349Z,100.00
2022-12-05T00:40:08.541Z,100.00
2022-12-05T00:45:10.697Z,100.00
2022-12-05T00:50:12.327Z,100.00
2022-12-05T00:55:14.053Z,100.00
2022-12-05T01:00:16.283Z,100.00
2022-12-05T01:05:17.920Z,100.00
2022-12-05T01:10:19.616Z,100.00
2022-12-05T01:15:21.278Z,100.00
2022-12-05T01:20:22.929Z,100.00
2022-12-05T01:25:24.593Z,99.90
2022-12-05T01:30:26.434Z,99.74
2022-12-05T01:35:28.063Z,99.22
2022-12-05T01:40:29.734Z,100.00
2022-12-05T01:45:36.643Z,100.00
2022-12-05T01:50:38.592Z,99.95
2022-12-05T01:55:40.335Z,100.00
2022-12-05T02:00:42.502Z,100.00
2022-12-05T02:05:48.242Z,100.00
2022-12-05T02:10:53.279Z,99.52
2022-12-05T02:16:16.480Z,100.00
2022-12-05T02:21:29.019Z,100.00
2022-12-05T02:26:30.609Z,100.00
2022-12-05T02:31:39.367Z,100.00
2022-12-05T02:36:49.821Z,100.00
2022-12-05T02:41:57.612Z,100.00
2022-12-05T02:47:00.792Z,100.00
2022-12-05T02:52:05.732Z,100.00
2022-12-05T02:57:09.963Z,100.00
2022-12-05T03:02:24.924Z,100.00
2022-12-05T03:07:29.257Z,100.00
2022-12-05T03:12:39.842Z,100.00
2022-12-05T03:17:51.354Z,99.54
2022-12-05T03:22:59.057Z,100.00
2022-12-05T03:28:18.940Z,99.40
2022-12-05T03:33:26.104Z,100.00
2022-12-05T03:38:33.621Z,98.38
2022-12-05T03:43:49.185Z,100.00
2022-12-05T03:48:59.259Z,99.55
2022-12-05T03:54:16.071Z,99.74
2022-12-05T03:59:34.627Z,99.81
2022-12-05T04:04:40.477Z,98.73
2022-12-05T04:09:59.463Z,100.00
2022-12-05T04:15:08.194Z,98.33
2022-12-05T04:20:59.939Z,99.88
2022-12-05T04:26:18.872Z,100.00
2022-12-05T04:31:40.302Z,100.00
2022-12-05T04:36:51.805Z,100.00
2022-12-05T04:41:58.740Z,100.00
2022-12-05T04:47:04.597Z,99.96
2022-12-05T04:52:12.059Z,100.00
2022-12-05T04:57:19.528Z,100.00
2022-12-05T05:02:39.387Z,98.26
2022-12-05T05:07:50.917Z,99.11
2022-12-05T05:12:52.762Z,96.63
2022-12-05T05:17:54.468Z,97.07
2022-12-05T05:22:58.098Z,99.23
2022-12-05T05:27:59.785Z,99.48
2022-12-05T05:33:01.460Z,99.77
2022-12-05T05:38:03.529Z,100.00
2022-12-05T05:43:05.309Z,100.00
2022-12-05T05:48:07.023Z,100.00
2022-12-05T05:53:08.646Z,100.00
2022-12-05T05:58:10.280Z,100.00
2022-12-05T06:03:12.112Z,100.00
2022-12-05T06:08:13.981Z,100.00
2022-12-05T06:13:15.680Z,100.00
2022-12-05T06:18:17.733Z,100.00
2022-12-05T06:23:19.440Z,100.00
2022-12-05T06:28:23.374Z,100.00
2022-12-05T06:33:25.265Z,100.00
2022-12-05T06:38:26.924Z,100.00
2022-12-05T06:43:28.697Z,100.00
2022-12-05T06:48:30.457Z,100.00
2022-12-05T06:53:32.600Z,100.00
2022-12-05T06:58:34.723Z,100.00
2022-12-05T07:03:36.626Z,100.00
2022-12-05T07:08:38.355Z,100.00
2022-12-05T07:13:40.072Z,100.00
2022-12-05T07:18:41.946Z,100.00
2022-12-05T07:23:45.522Z,100.00
2022-12-05T07:28:48.515Z,100.00
2022-12-05T07:33:57.664Z,100.00
2022-12-05T07:38:59.579Z,100.00
2022-12-05T07:44:01.248Z,100.00
2022-12-05T07:49:03.242Z,100.00
2022-12-05T07:54:05.058Z,100.00
2022-12-05T07:59:06.693Z,100.00
2022-12-05T08:04:13.571Z,100.00
2022-12-05T08:09:16.932Z,100.00
2022-12-05T08:14:18.658Z,100.00
2022-12-05T08:19:20.347Z,100.00
2022-12-05T08:24:22.158Z,100.00
2022-12-05T08:29:23.817Z,100.00
2022-12-05T08:34:25.466Z,100.00
2022-12-05T08:39:27.422Z,100.00
2022-12-05T08:44:29.070Z,100.00
2022-12-05T08:49:30.776Z,100.00
2022-12-05T08:54:32.445Z,100.00
2022-12-05T08:59:34.132Z,100.00
2022-12-05T09:04:35.758Z,100.00
2022-12-05T09:09:37.715Z,100.00
2022-12-05T09:14:39.403Z,100.00
2022-12-05T09:19:41.146Z,100.00
2022-12-05T09:24:42.781Z,100.00
2022-12-05T09:29:44.457Z,100.00
2022-12-05T09:34:46.233Z,100.00
2022-12-05T09:39:48.036Z,100.00
2022-12-05T09:44:49.637Z,100.00
2022-12-05T09:49:55.969Z,100.00
2022-12-05T09:55:05.239Z,100.00
2022-12-05T10:00:09.810Z,100.00
2022-12-05T10:05:19.590Z,100.00
2022-12-05T10:10:28.734Z,100.00
2022-12-05T10:15:45.926Z,100.00
2022-12-05T10:21:15.215Z,100.00
2022-12-05T10:26:17.256Z,100.00
2022-12-05T10:31:25.707Z,100.00
2022-12-05T10:36:27.458Z,100.00
2022-12-05T10:41:29.205Z,98.91
2022-12-05T10:46:31.288Z,95.57
2022-12-05T10:51:37.504Z,96.99
2022-12-05T10:56:43.930Z,96.49
2022-12-05T11:01:52.333Z,95.69
2022-12-05T11:06:59.305Z,96.57
2022-12-05T11:12:09.492Z,94.32
2022-12-05T11:17:24.465Z,95.34
2022-12-05T11:22:35.025Z,93.93
2022-12-05T11:27:36.819Z,92.28
2022-12-05T11:32:39.548Z,90.69
2022-12-05T11:37:58.058Z,92.07
2022-12-05T11:43:38.199Z,90.04
2022-12-05T11:49:28.224Z,90.36
2022-12-05T11:55:06.343Z,93.53
2022-12-05T12:00:31.521Z,92.78
2022-12-05T12:05:50.393Z,92.44
2022-12-05T12:11:12.591Z,90.51
2022-12-05T12:16:21.894Z,90.95
2022-12-05T12:21:36.924Z,91.41
2022-12-05T12:26:42.792Z,91.21
2022-12-05T12:31:53.665Z,92.32
2022-12-05T12:37:03.620Z,91.34
2022-12-05T12:42:21.434Z,90.06
2022-12-05T12:47:40.070Z,89.32
2022-12-05T12:52:51.084Z,88.86
2022-12-05T12:58:19.380Z,88.90
2022-12-05T13:03:27.230Z,89.75
2022-12-05T13:08:32.856Z,89.23
2022-12-05T13:13:40.591Z,89.07
2022-12-05T13:18:42.299Z,89.82
2022-12-05T13:23:49.210Z,88.66
2022-12-05T13:28:58.126Z,91.41
2022-12-05T13:33:59.775Z,92.69
2022-12-05T13:39:26.353Z,93.81
2022-12-05T13:44:36.025Z,93.19
2022-12-05T13:49:50.886Z,92.45
2022-12-05T13:55:33.881Z,94.63
2022-12-05T14:00:37.503Z,96.41
2022-12-05T14:05:44.821Z,96.53
2022-12-05T14:10:46.387Z,97.70
2022-12-05T14:15:51.855Z,96.43
2022-12-05T14:21:17.831Z,98.36
2022-12-05T14:26:49.019Z,98.73
2022-12-05T14:32:25.584Z,99.25
2022-12-05T14:37:30.153Z,99.67
2022-12-05T14:42:42.981Z,99.97
2022-12-05T14:47:52.251Z,100.00
2022-12-05T14:53:22.136Z,100.00
2022-12-05T14:58:30.758Z,98.58
2022-12-05T15:03:37.113Z,98.85
2022-12-05T15:08:49.278Z,100.00
2022-12-05T15:13:51.932Z,100.00
2022-12-05T15:19:04.248Z,99.42
2022-12-05T15:24:13.374Z,99.11
2022-12-05T15:29:28.443Z,100.00
2022-12-05T15:34:53.677Z,99.58
2022-12-05T15:40:02.577Z,100.00
2022-12-05T15:45:13.589Z,100.00
2022-12-05T15:50:37.046Z,100.00
2022-12-05T15:55:46.376Z,100.00
2022-12-05T16:00:52.404Z,100.00
2022-12-05T16:06:11.155Z,100.00
2022-12-05T16:11:15.337Z,100.00
2022-12-05T16:16:24.175Z,100.00
2022-12-05T16:21:38.520Z,100.00
2022-12-05T16:26:57.739Z,100.00
2022-12-05T16:32:03.824Z,100.00
2022-12-05T16:37:08.220Z,100.00
2022-12-05T16:42:37.987Z,100.00
2022-12-05T16:47:54.411Z,100.00
2022-12-05T16:53:02.948Z,100.00
2022-12-05T16:58:07.859Z,100.00
2022-12-05T17:03:33.975Z,100.00
2022-12-05T17:08:37.274Z,100.00
2022-12-05T17:13:39.312Z,100.00
2022-12-05T17:18:41.551Z,100.00
2022-12-05T17:23:51.498Z,100.00
2022-12-05T17:28:57.009Z,100.00
2022-12-05T17:33:59.924Z,100.00
2022-12-05T17:39:02.932Z,100.00
2022-12-05T17:44:08.282Z,100.00
2022-12-05T17:49:19.163Z,100.00
2022-12-05T17:54:26.663Z,100.00
2022-12-05T17:59:28.451Z,100.00
2022-12-05T18:04:30.733Z,100.00
2022-12-05T18:09:33.417Z,100.00
2022-12-05T18:14:36.421Z,100.00
2022-12-05T18:19:38.362Z,100.00
2022-12-05T18:24:40.310Z,100.00
2022-12-05T18:29:42.721Z,100.00
2022-12-05T18:34:46.177Z,100.00
2022-12-05T18:39:53.449Z,100.00
2022-12-05T18:44:58.650Z,100.00
2022-12-05T18:50:02.851Z,100.00
2022-12-05T18:55:31.158Z,100.00
2022-12-05T19:00:27.636Z,100.00
2022-12-05T19:05:32.248Z,100.00
2022-12-05T19:10:35.997Z,100.00
2022-12-05T19:15:38.455Z,100.00
2022-12-05T19:20:40.763Z,100.00
2022-12-05T19:25:42.875Z,100.00
2022-12-05T19:30:46.063Z,100.00
2022-12-05T19:35:56.899Z,100.00
2022-12-05T19:40:59.871Z,100.00
2022-12-05T19:46:08.437Z,100.00
2022-12-05T19:51:11.247Z,100.00
2022-12-05T19:56:20.122Z,100.00
2022-12-05T20:01:37.973Z,100.00
2022-12-05T20:06:48.122Z,100.00
2022-12-05T20:11:55.196Z,100.00
2022-12-05T20:16:57.548Z,100.00
2022-12-05T20:21:59.412Z,100.00
2022-12-05T20:27:01.939Z,100.00
2022-12-05T20:32:03.712Z,100.00
2022-12-05T20:37:05.310Z,100.00
2022-12-05T20:42:07.001Z,100.00
2022-12-05T20:47:08.709Z,100.00
2022-12-05T20:52:10.343Z,100.00
2022-12-05T20:57:12.263Z,100.00
2022-12-05T21:02:13.948Z,100.00
2022-12-05T21:07:15.640Z,100.00
2022-12-05T21:12:17.305Z,100.00
2022-12-05T21:17:19.079Z,98.64
2022-12-05T21:22:20.742Z,98.11
2022-12-05T21:27:22.421Z,100.00
2022-12-05T21:32:24.040Z,99.35
2022-12-05T21:37:25.831Z,100.00
2022-12-05T21:42:27.621Z,100.00
2022-12-05T21:47:29.574Z,100.00
2022-12-05T21:52:39.235Z,100.00
2022-12-05T21:57:40.895Z,100.00
2022-12-05T22:02:42.607Z,100.00
2022-12-05T22:07:44.424Z,100.00
2022-12-05T22:12:46.160Z,100.00
2022-12-05T22:17:47.810Z,100.00
2022-12-05T22:22:50.600Z,100.00
2022-12-05T22:27:52.215Z,100.00
2022-12-05T22:32:53.943Z,100.00
2022-12-05T22:37:55.560Z,100.00
2022-12-05T22:42:57.307Z,100.00
2022-12-05T22:47:58.942Z,100.00
2022-12-05T22:53:00.740Z,100.00
2022-12-05T22:58:02.361Z,100.00
2022-12-05T23:03:04.446Z,100.00
2022-12-05T23:08:07.120Z,99.99
2022-12-05T23:13:09.359Z,100.00
2022-12-05T23:18:11.017Z,100.00
2022-12-05T23:23:12.758Z,100.00
2022-12-05T23:28:14.368Z,99.80
2022-12-05T23:33:16.000Z,99.52
2022-12-05T23:38:17.614Z,100.00
2022-12-05T23:43:19.221Z,99.63
2022-12-05T23:48:21.020Z,100.00
2022-12-05T23:53:22.696Z,100.00
2022-12-05T23:58:24.351Z,100.00
